Flight Track Log - Related Links

Times and Time Zones

All times are in EDT time to prevent confusion due to time zone crossing. See the SKW6241 flight status page for this flight to view local times or setup timezone preferences in your user account.

Time Position Orientation Groundspeed Altitude Reporting Facility
EDT Latitude Longitude Course Direction KTS MPH feet Rate Location/Type
Fri 09:24:02 AM 35.4192 -97.6092 309° West 175 201 2,000  Level Fort Worth Center
Fri 09:24:45 AM 35.4447 -97.6486 309° West 207 238 3,400 2,108 Climbing Fort Worth Center
Fri 09:25:16 AM 35.4536 -97.6844 287° West 214 246 4,600 2,333 Climbing Fort Worth Center
Fri 09:25:39 AM 35.4542 -97.7139 271° West 224 258 5,500 2,323 Climbing Fort Worth Center
Fri 09:26:18 AM 35.4578 -97.7586 276° West 217 250 7,000 2,353 Climbing Fort Worth Center
Fri 09:27:21 AM 35.4619 -97.8408 274° West 224 258 9,500 2,208 Climbing Fort Worth Center
Fri 09:28:23 AM 35.4775 -97.9169 284° West 224 258 11,600 1,887 Climbing Fort Worth Center
Fri 09:29:25 AM 35.4972 -97.9958 287° West 236 272 13,400 1,694 Climbing Fort Worth Center
Fri 09:30:27 AM 35.5186 -98.0842 287° West 260 299 15,100 1,548 Climbing Fort Worth Center
Fri 09:31:29 AM 35.5419 -98.1806 287° West 290 334 16,600 1,694 Climbing Fort Worth Center
Fri 09:32:31 AM 35.5661 -98.2825 286° West 309 356 18,600 2,032 Climbing Fort Worth Center
Fri 09:33:33 AM 35.5900 -98.3825 286° West 309 356 20,800 1,887 Climbing Fort Worth Center
Fri 09:34:35 AM 35.6172 -98.4942 287° West 307 353 22,500 1,452 Climbing Fort Worth Center
Fri 09:35:37 AM 35.6425 -98.6003 286° West 317 365 23,800 1,258 Climbing Fort Worth Center
Fri 09:36:39 AM 35.6694 -98.7117 287° West 336 387 25,100 1,500 Climbing Fort Worth Center
Fri 09:37:41 AM 35.7011 -98.8458 286° West 338 389 26,900 1,536 Climbing Fort Worth Center
Fri 09:38:44 AM 35.7283 -98.9586 287° West 338 389 28,300 1,056 Climbing Fort Worth Center
Fri 09:39:46 AM 35.7550 -99.0731 286° West 344 396 29,100 726 Climbing Fort Worth Center
Fri 09:40:48 AM 35.7833 -99.1933 286° West 356 410 29,800 823 Climbing Fort Worth Center
Fri 09:41:50 AM 35.8131 -99.3172 287° West 367 422 30,800 968 Climbing Fort Worth Center
Fri 09:42:52 AM 35.8414 -99.4406 286° West 368 423 31,800 968 Climbing Fort Worth Center
Fri 09:43:54 AM 35.8669 -99.5656 284° West 368 423 32,800 885 Climbing Fort Worth Center
Fri 09:44:54 AM 35.8917 -99.6897 284° West 368 423 33,600 738 Climbing Kansas City Center
Fri 09:45:56 AM 35.9164 -99.8139 284° West 368 423 34,300 581 Climbing Kansas City Center
Fri 09:46:58 AM 35.9411 -99.9392 284° West 369 425 34,800 629 Climbing Kansas City Center
Fri 09:48:00 AM 35.9692 -100.0908 283° West 373 429 35,600 581 Climbing Kansas City Center
Fri 09:49:02 AM 35.9939 -100.2164 284° West 373 429 36,000 194 Climbing Kansas City Center
Fri 09:50:04 AM 36.0183 -100.3422 284° West 373 429 36,000  Level Kansas City Center
Fri 09:50:43 AM 36.0331 -100.4158 284° West 375 432 36,000  Level Albuquerque Center
Fri 09:51:44 AM 36.0561 -100.5389 283° West 372 428 36,000  Level Albuquerque Center
Fri 09:52:45 AM 36.0786 -100.6600 283° West 369 425 36,000  Level Albuquerque Center
Fri 09:53:46 AM 36.1019 -100.7811 283° West 366 421 36,000  Level Albuquerque Center
Fri 09:54:47 AM 36.1242 -100.9017 283° West 365 420 36,000  Level Albuquerque Center
Fri 09:55:49 AM 36.1508 -101.0481 283° West 364 419 36,000  Level Albuquerque Center
Fri 09:56:50 AM 36.1733 -101.1681 283° West 363 418 36,000  Level Albuquerque Center
Fri 09:57:51 AM 36.1947 -101.2814 283° West 363 418 36,000  Level Albuquerque Center
Fri 09:58:52 AM 36.2175 -101.4036 283° West 363 418 36,000  Level Albuquerque Center
Fri 09:59:54 AM 36.2389 -101.5256 282° West 363 418 36,000  Level Albuquerque Center
Fri 10:00:55 AM 36.2603 -101.6478 282° West 363 418 36,000  Level Albuquerque Center
Fri 10:01:56 AM 36.2875 -101.7961 283° West 365 420 36,000  Level Albuquerque Center
Fri 10:02:58 AM 36.3092 -101.9231 282° West 373 429 36,000  Level Albuquerque Center
Fri 10:03:59 AM 36.3322 -102.0511 283° West 377 434 36,000  Level Albuquerque Center
Fri 10:05:01 AM 36.3556 -102.1814 283° West 384 442 36,000  Level Albuquerque Center
Fri 10:06:02 AM 36.3778 -102.3114 282° West 386 444 36,000  Level Albuquerque Center
Fri 10:07:03 AM 36.4000 -102.4403 282° West 386 444 36,000  Level Albuquerque Center
Fri 10:08:05 AM 36.4222 -102.5711 282° West 386 444 36,000  Level Albuquerque Center
Fri 10:09:06 AM 36.4444 -102.6992 282° West 386 444 36,000  Level Albuquerque Center
Fri 10:10:08 AM 36.4700 -102.8508 282° West 381 438 36,000  Level Albuquerque Center
Fri 10:11:09 AM 36.4919 -102.9789 282° West 380 437 36,000  Level Albuquerque Center
Fri 10:12:12 AM 36.5128 -103.1067 282° West 380 437 36,000  Level Albuquerque Center
Fri 10:13:13 AM 36.5339 -103.2358 282° West 380 437 36,000  Level Albuquerque Center
Fri 10:14:14 AM 36.5561 -103.3631 282° West 379 436 36,000  Level Albuquerque Center
Fri 10:15:16 AM 36.5764 -103.4922 281° West 378 435 36,000  Level Albuquerque Center
Fri 10:16:17 AM 36.5975 -103.6200 282° West 378 435 36,000  Level Albuquerque Center
Fri 10:17:19 AM 36.6178 -103.7472 281° West 377 434 36,000  Level Albuquerque Center
Fri 10:18:21 AM 36.6411 -103.8964 281° West 376 433 36,000  Level Albuquerque Center
Fri 10:19:22 AM 36.6614 -104.0225 281° West 374 430 36,000  Level Albuquerque Center
Fri 10:20:24 AM 36.6814 -104.1442 282° West 374 430 36,000  Level Albuquerque Center
Fri 10:21:26 AM 36.7003 -104.2639 281° West 371 427 36,000  Level Albuquerque Center
Fri 10:22:27 AM 36.7217 -104.4044 281° West 371 427 36,000  Level Albuquerque Center
Fri 10:23:29 AM 36.7403 -104.5267 281° West 371 427 36,000  Level Albuquerque Center
Fri 10:24:31 AM 36.7597 -104.6522 281° West 370 426 36,000  Level Albuquerque Center
Fri 10:25:32 AM 36.7792 -104.7811 281° West 371 427 36,000  Level Albuquerque Center
Fri 10:26:34 AM 36.8036 -104.9383 281° West 385 443 36,000  Level Albuquerque Center
Fri 10:27:36 AM 36.8228 -105.0653 281° West 387 445 36,000  Level Albuquerque Center
Fri 10:28:38 AM 36.8414 -105.1936 280° West 388 447 36,000  Level Albuquerque Center
Fri 10:29:39 AM 36.8636 -105.3414 281° West 389 448 36,000  Level Albuquerque Center
Fri 10:30:41 AM 36.8811 -105.4669 280° West 387 445 36,000  Level Albuquerque Center
Fri 10:31:43 AM 36.9008 -105.6061 280° West 382 440 36,000  Level Albuquerque Center
Fri 10:32:45 AM 36.9194 -105.7339 280° West 378 435 36,000  Level Albuquerque Center
Fri 10:33:47 AM 36.9375 -105.8608 280° West 376 433 36,000  Level Albuquerque Center
Fri 10:34:49 AM 36.9547 -105.9878 280° West 375 432 36,000  Level Albuquerque Center
Fri 10:36:00 AM 36.9792 -106.1367 282° West 370 426 36,000  Level Denver Center
Fri 10:37:02 AM 36.9936 -106.2742 278° West 363 418 36,000  Level Denver Center
Fri 10:38:04 AM 37.0108 -106.3942 280° West 363 418 36,000  Level Denver Center
Fri 10:39:06 AM 37.0294 -106.5331 280° West 364 419 36,000  Level Denver Center
Fri 10:40:08 AM 37.0528 -106.6514 284° West 363 418 36,000  Level Denver Center
Fri 10:41:10 AM 37.0794 -106.7900 284° West 364 419 36,000  Level Denver Center
Fri 10:42:11 AM 37.1022 -106.9114 283° West 371 427 36,000  Level Denver Center
Fri 10:43:13 AM 37.1289 -107.0536 283° West 374 430 36,000  Level Denver Center
Fri 10:44:15 AM 37.1525 -107.1761 284° West 376 433 36,000  Level Denver Center
Fri 10:45:17 AM 37.1783 -107.3206 283° West 378 435 36,000  Level Denver Center
Fri 10:46:19 AM 37.2006 -107.4456 283° West 383 441 36,000  Level Denver Center
Fri 10:47:21 AM 37.2244 -107.5725 283° West 386 444 36,000  Level Denver Center
Fri 10:48:23 AM 37.2514 -107.7189 283° West 388 447 36,000  Level Denver Center
Fri 10:49:25 AM 37.2736 -107.8439 283° West 388 447 36,000  Level Denver Center
Fri 10:50:27 AM 37.2997 -107.9883 283° West 386 444 36,000  Level Denver Center
Fri 10:51:29 AM 37.3219 -108.1111 283° West 380 437 36,000  Level Denver Center
Fri 10:52:31 AM 37.3461 -108.2542 282° West 380 437 36,000  Level Denver Center
Fri 10:53:33 AM 37.3681 -108.3769 283° West 377 434 36,000  Level Denver Center
Fri 10:54:35 AM 37.3931 -108.5239 282° West 382 440 36,000  Level Denver Center
Fri 10:55:37 AM 37.4139 -108.6481 282° West 383 441 36,000  Level Denver Center
Fri 10:56:40 AM 37.4400 -108.7944 283° West 383 441 36,000  Level Denver Center
Fri 10:57:42 AM 37.4614 -108.9217 282° West 387 445 36,000  Level Denver Center
Fri 10:58:44 AM 37.4858 -109.0700 282° West 389 448 36,000  Level Denver Center
Fri 10:59:46 AM 37.5078 -109.1986 282° West 389 448 36,000  Level Denver Center
Fri 11:00:48 AM 37.5331 -109.3486 282° West 392 451 36,000  Level Denver Center
Fri 11:01:50 AM 37.5528 -109.4761 281° West 391 450 36,000  Level Denver Center
Fri 11:02:52 AM 37.5781 -109.6242 282° West 391 450 36,000  Level Denver Center
Fri 11:03:54 AM 37.5978 -109.7519 281° West 389 448 36,000  Level Denver Center
Fri 11:04:56 AM 37.6222 -109.9011 282° West 389 448 36,000  Level Denver Center
Fri 11:05:58 AM 37.6425 -110.0297 281° West 390 449 36,000  Level Denver Center
Fri 11:07:00 AM 37.6656 -110.1781 281° West 387 445 36,000  Level Denver Center
Fri 11:08:02 AM 37.6858 -110.3056 281° West 387 445 36,000  Level Denver Center
Fri 11:09:04 AM 37.7092 -110.4533 281° West 387 445 36,000  Level Denver Center
Fri 11:10:07 AM 37.7275 -110.5739 281° West 387 445 36,000  Level Denver Center
Fri 11:11:09 AM 37.7478 -110.7072 281° West 387 445 36,000  Level Denver Center
Fri 11:12:11 AM 37.7731 -110.8678 281° West 387 445 36,000  Level Denver Center
Fri 11:13:13 AM 37.7933 -111.0025 281° West 389 448 36,000  Level Denver Center
Fri 11:14:15 AM 37.8122 -111.1364 280° West 389 448 36,000  Level Denver Center
Fri 11:15:08 AM 37.8278 -111.2447 280° West 389 448 36,000  Level Salt Lake Center
Fri 11:16:10 AM 37.8483 -111.3819 281° West 394 453 36,000  Level Salt Lake Center
Fri 11:17:12 AM 37.8744 -111.5467 281° West 398 458 36,000  Level Salt Lake Center
Fri 11:18:14 AM 37.8936 -111.6831 280° West 398 458 36,000  Level Salt Lake Center
Fri 11:19:16 AM 37.9131 -111.8197 280° West 398 458 36,000  Level Salt Lake Center
Fri 11:20:18 AM 37.9333 -111.9583 281° West 398 458 36,000  Level Salt Lake Center
Fri 11:21:19 AM 37.9533 -112.0969 280° West 400 460 36,000  Level Salt Lake Center
Fri 11:22:21 AM 37.9725 -112.2344 280° West 400 460 36,000  Level Salt Lake Center
Fri 11:23:23 AM 37.9953 -112.3989 280° West 400 460 36,000  Level Salt Lake Center
Fri 11:24:25 AM 38.0142 -112.5347 280° West 399 459 36,000  Level Salt Lake Center
Fri 11:25:27 AM 38.0325 -112.6689 280° West 395 455 36,000  Level Salt Lake Center
Fri 11:26:29 AM 38.0508 -112.8050 280° West 395 455 36,000  Level Salt Lake Center
Fri 11:27:31 AM 38.0675 -112.9408 279° West 395 455 36,000  Level Salt Lake Center
Fri 11:28:32 AM 38.0889 -113.1056 279° West 395 455 36,000  Level Salt Lake Center
Fri 11:29:34 AM 38.1078 -113.2425 280° West 396 456 36,000  Level Salt Lake Center
Fri 11:30:36 AM 38.1242 -113.3822 279° West 399 459 36,000  Level Salt Lake Center
Fri 11:31:38 AM 38.1431 -113.5214 280° West 400 460 36,000  Level Salt Lake Center
Fri 11:32:40 AM 38.1611 -113.6628 279° West 404 465 36,000  Level Salt Lake Center
Fri 11:33:42 AM 38.1792 -113.8036 279° West 404 465 36,000  Level Salt Lake Center
Fri 11:34:44 AM 38.2008 -113.9758 279° West 408 470 36,000  Level Salt Lake Center
Fri 11:35:46 AM 38.2181 -114.1200 279° West 410 472 36,000  Level Salt Lake Center
Fri 11:36:47 AM 38.2356 -114.2656 279° West 414 476 36,000  Level Salt Lake Center
Fri 11:37:49 AM 38.2497 -114.4133 277° West 420 483 36,000  Level Salt Lake Center
Fri 11:38:51 AM 38.2394 -114.5661 265° West 430 495 36,000  Level Salt Lake Center
Fri 11:39:53 AM 38.2294 -114.7183 265° West 431 496 36,000  Level Salt Lake Center
Fri 11:40:55 AM 38.2189 -114.9000 266° West 432 497 36,000  Level Salt Lake Center
Fri 11:41:57 AM 38.2100 -115.0517 266° West 431 496 36,000  Level Salt Lake Center
Fri 11:42:59 AM 38.1994 -115.2019 265° West 431 496 36,000  Level Salt Lake Center
Fri 11:44:01 AM 38.1903 -115.3536 266° West 431 496 36,000  Level Salt Lake Center
Fri 11:45:03 AM 38.1797 -115.5056 265° West 431 496 36,000  Level Salt Lake Center
Fri 11:46:05 AM 38.1689 -115.6578 265° West 431 496 36,000  Level Salt Lake Center
Fri 11:47:06 AM 38.1589 -115.8119 265° West 433 498 36,000  Level Salt Lake Center
Fri 11:48:08 AM 38.1453 -115.9986 265° West 437 503 36,000  Level Salt Lake Center
Fri 11:49:10 AM 38.1328 -116.1539 264° West 441 507 36,000  Level Salt Lake Center
Fri 11:50:12 AM 38.1222 -116.3100 265° West 442 509 36,000  Level Salt Lake Center
Fri 11:50:54 AM 38.1150 -116.4044 264° West 444 511 36,000  Level Oakland Center
Fri 11:51:55 AM 38.1000 -116.5933 264° West 445 512 36,000  Level Oakland Center
Fri 11:52:56 AM 38.0881 -116.7494 264° West 445 512 36,000  Level Oakland Center
Fri 11:53:58 AM 38.0764 -116.9047 265° West 445 512 36,000  Level Oakland Center
Fri 11:54:59 AM 38.0636 -117.0608 264° West 442 509 36,000  Level Oakland Center
Fri 11:56:01 AM 38.0503 -117.2206 264° West 442 509 36,000  Level Oakland Center
Fri 11:57:02 AM 38.0372 -117.3794 264° West 442 509 36,000  Level Oakland Center
Fri 11:58:04 AM 38.0239 -117.5353 264° West 442 509 36,000  Level Oakland Center
Fri 11:59:05 AM 38.0103 -117.6908 264° West 442 509 36,000  Level Oakland Center
Fri 12:00:06 PM 37.9958 -117.8464 263° West 443 510 36,000 -98 Level Oakland Center
Fri 12:01:08 PM 37.9797 -118.0017 263° West 443 510 35,800 -484 Descending Oakland Center
Fri 12:02:10 PM 37.9619 -118.1589 262° West 448 516 35,000 -1,561 Descending Oakland Center
Fri 12:03:11 PM 37.9450 -118.3142 262° West 447 514 32,600 -1,463 Descending Oakland Center
Fri 12:04:13 PM 37.9281 -118.4714 262° West 447 514 32,000 -293 Descending Oakland Center
Fri 12:05:14 PM 37.9075 -118.6575 262° West 447 514 32,000  Level Oakland Center
Fri 12:06:16 PM 37.8892 -118.8172 262° West 455 524 32,000  Level Oakland Center
Fri 12:07:18 PM 37.8719 -118.9775 262° West 457 526 32,000  Level Oakland Center
Fri 12:08:19 PM 37.8556 -119.1206 262° West 459 528 32,000  Level Oakland Center
Fri 12:09:21 PM 37.8325 -119.3144 261° West 461 531 32,000  Level Oakland Center
Fri 12:10:22 PM 37.8144 -119.4739 262° West 461 531 32,000  Level Oakland Center
Fri 12:11:24 PM 37.7944 -119.6350 261° West 464 534 32,000  Level Oakland Center
Fri 12:12:25 PM 37.7753 -119.7958 261° West 463 533 32,000 -439 Level Oakland Center
Fri 12:13:27 PM 37.7561 -119.9536 261° West 459 528 31,100 -1,403 Descending Oakland Center
Fri 12:14:29 PM 37.7356 -120.1144 261° West 459 528 29,100 -1,951 Descending Oakland Center
Fri 12:15:30 PM 37.7172 -120.2642 261° West 444 511 27,100 -1,805 Descending Oakland Center
Fri 12:16:32 PM 37.6994 -120.4047 261° West 419 482 25,400 -1,561 Descending Oakland Center
Fri 12:17:33 PM 37.6831 -120.5339 261° West 391 450 23,900 -1,805 Descending Oakland Center
Fri 12:18:35 PM 37.6636 -120.6842 261° West 369 425 21,700 -1,935 Descending Oakland Center
Fri 12:19:37 PM 37.6472 -120.8106 261° West 368 423 19,900 -1,795 Descending Oakland Center
Fri 12:20:32 PM 37.6333 -120.9333 262° West 370 426 18,200 -1,826 Descending Northern Cal TRACON
Fri 12:21:32 PM 37.6167 -121.0500 260° West 363 418 16,400 -1,700 Descending Northern Cal TRACON
Fri 12:22:32 PM 37.6000 -121.1667 260° West 341 392 14,800 -1,550 Descending Northern Cal TRACON
Fri 12:23:32 PM 37.5833 -121.2833 260° West 309 356 13,300 -1,650 Descending Northern Cal TRACON
Fri 12:24:32 PM 37.5833 -121.3833 270° West 301 346 11,500 -1,150 Descending Northern Cal TRACON
Fri 12:25:32 PM 37.5667 -121.4833 258° West 293 337 11,000 -250 Descending Northern Cal TRACON
Fri 12:26:32 PM 37.5500 -121.5833 258° West 295 339 11,000 -50 Level Northern Cal TRACON
Fri 12:27:32 PM 37.5667 -121.6667 284° West 275 316 10,900 -700 Descending Northern Cal TRACON
Fri 12:28:32 PM 37.6167 -121.7500 307° West 248 285 9,600 -950 Descending Northern Cal TRACON
Fri 12:29:32 PM 37.6167 -121.8167 270° West 245 282 9,000 -300 Descending Northern Cal TRACON
Fri 12:30:32 PM 37.5333 -121.8167 180° South 249 287 9,000 -150 Level Northern Cal TRACON
Fri 12:31:32 PM 37.4833 -121.8167 180° South 236 272 8,700 -500 Descending Northern Cal TRACON
Fri 12:32:32 PM 37.4667 -121.8833 253° West 233 268 8,000 -750 Descending Northern Cal TRACON
Fri 12:33:32 PM 37.4667 -121.9667 270° West 243 280 7,200 -1,350 Descending Northern Cal TRACON
Fri 12:34:32 PM 37.4833 -122.0500 284° West 229 264 5,300 -1,650 Descending Northern Cal TRACON
Fri 12:35:32 PM 37.5167 -122.1333 297° West 221 254 3,900 -1,253 Descending Northern Cal TRACON
Fri 12:36:03 PM 37.5297 -122.1578 304° West 226 260 3,400 -913 Descending Oakland Center
Fri 12:37:04 PM 37.5531 -122.2175 296° West 207 238 2,500 -829 Descending Oakland Center
Fri 12:38:06 PM 37.5736 -122.2633 300° West 175 201 1,700 -732 Descending Oakland Center
Fri 12:39:07 PM 37.5911 -122.3058 297° West 153 176 1,000 -683 Descending Oakland Center
Fri 12:40:09 PM 37.6089 -122.3472 298° West 142 163 300 -677 Descending Oakland Center

Login

Don't have an account? Register now (free) for customized features, flight alerts, and more!